sensor_id;sensor_type;location;lat;lon;timestamp;pressure;altitude;pressure_sealevel;temperature;humidity
26192;BME280;13935;55.672;37.764;2023-08-20T00:00:29;100505.53;;;23.12;100.00
26192;BME280;13935;55.672;37.764;2023-08-20T00:01:32;100498.78;;;23.09;100.00
26192;BME280;13935;55.672;37.764;2023-08-20T00:02:36;100499.56;;;23.10;100.00
26192;BME280;13935;55.672;37.764;2023-08-20T00:03:40;100503.50;;;23.12;100.00
26192;BME280;13935;55.672;37.764;2023-08-20T00:04:43;100496.59;;;23.13;100.00
26192;BME280;13935;55.672;37.764;2023-08-20T00:05:46;100499.78;;;23.15;100.00
26192;BME280;13935;55.672;37.764;2023-08-20T00:06:49;100488.13;;;23.13;100.00
26192;BME280;13935;55.672;37.764;2023-08-20T00:07:51;100490.16;;;23.13;100.00
26192;BME280;13935;55.672;37.764;2023-08-20T00:08:52;100485.31;;;23.13;100.00
26192;BME280;13935;55.672;37.764;2023-08-20T00:09:54;100491.84;;;23.10;100.00
26192;BME280;13935;55.672;37.764;2023-08-20T00:10:56;100495.03;;;23.12;100.00
26192;BME280;13935;55.672;37.764;2023-08-20T00:11:59;100490.63;;;23.11;100.00
26192;BME280;13935;55.672;37.764;2023-08-20T00:13:00;100496.59;;;23.13;100.00
26192;BME280;13935;55.672;37.764;2023-08-20T00:14:02;100483.72;;;23.12;100.00
26192;BME280;13935;55.672;37.764;2023-08-20T00:15:05;100486.03;;;23.05;100.00
26192;BME280;13935;55.672;37.764;2023-08-20T00:16:08;100488.59;;;22.99;100.00
26192;BME280;13935;55.672;37.764;2023-08-20T00:17:11;100481.03;;;22.97;100.00
26192;BME280;13935;55.672;37.764;2023-08-20T00:18:13;100481.03;;;22.97;100.00
26192;BME280;13935;55.672;37.764;2023-08-20T00:19:15;100476.94;;;22.98;100.00
26192;BME280;13935;55.672;37.764;2023-08-20T00:20:18;100481.81;;;22.97;100.00
26192;BME280;13935;55.672;37.764;2023-08-20T00:21:24;100489.16;;;22.95;100.00
26192;BME280;13935;55.672;37.764;2023-08-20T00:22:28;100490.75;;;22.96;100.00
26192;BME280;13935;55.672;37.764;2023-08-20T00:23:32;100491.00;;;22.89;100.00
26192;BME280;13935;55.672;37.764;2023-08-20T00:24:34;100487.63;;;22.81;100.00
26192;BME280;13935;55.672;37.764;2023-08-20T00:25:36;100480.16;;;22.87;100.00
26192;BME280;13935;55.672;37.764;2023-08-20T00:26:39;100477.34;;;22.87;100.00
26192;BME280;13935;55.672;37.764;2023-08-20T00:27:41;100486.25;;;22.86;100.00
26192;BME280;13935;55.672;37.764;2023-08-20T00:28:44;100491.22;;;22.82;100.00
26192;BME280;13935;55.672;37.764;2023-08-20T00:29:46;100480.50;;;22.77;100.00
26192;BME280;13935;55.672;37.764;2023-08-20T00:30:47;100478.59;;;22.74;100.00
26192;BME280;13935;55.672;37.764;2023-08-20T00:31:50;100490.81;;;22.71;100.00
26192;BME280;13935;55.672;37.764;2023-08-20T00:32:52;100484.56;;;22.76;100.00
26192;BME280;13935;55.672;37.764;2023-08-20T00:33:59;100483.00;;;22.75;100.00
26192;BME280;13935;55.672;37.764;2023-08-20T00:35:08;100481.22;;;22.68;100.00
26192;BME280;13935;55.672;37.764;2023-08-20T00:36:11;100466.75;;;22.66;100.00
26192;BME280;13935;55.672;37.764;2023-08-20T00:37:13;100472.41;;;22.66;100.00
26192;BME280;13935;55.672;37.764;2023-08-20T00:38:15;100469.13;;;22.68;100.00
26192;BME280;13935;55.672;37.764;2023-08-20T00:39:17;100472.41;;;22.66;100.00
26192;BME280;13935;55.672;37.764;2023-08-20T00:40:19;100466.88;;;22.63;100.00
26192;BME280;13935;55.672;37.764;2023-08-20T00:41:21;100469.13;;;22.68;100.00
26192;BME280;13935;55.672;37.764;2023-08-20T00:42:25;100472.28;;;22.70;100.00
26192;BME280;13935;55.672;37.764;2023-08-20T00:43:27;100460.53;;;22.71;100.00
26192;BME280;13935;55.672;37.764;2023-08-20T00:44:31;100465.97;;;22.66;100.00
26192;BME280;13935;55.672;37.764;2023-08-20T00:45:33;100454.69;;;22.66;100.00
26192;BME280;13935;55.672;37.764;2023-08-20T00:46:36;100457.16;;;22.64;100.00
26192;BME280;13935;55.672;37.764;2023-08-20T00:47:38;100449.94;;;22.63;100.00
26192;BME280;13935;55.672;37.764;2023-08-20T00:48:41;100456.25;;;22.67;100.00
26192;BME280;13935;55.672;37.764;2023-08-20T00:49:43;100446.00;;;22.60;100.00
26192;BME280;13935;55.672;37.764;2023-08-20T00:50:45;100451.19;;;22.62;100.00
26192;BME280;13935;55.672;37.764;2023-08-20T00:51:47;100450.88;;;22.60;100.00
26192;BME280;13935;55.672;37.764;2023-08-20T00:52:52;100449.16;;;22.62;100.00
26192;BME280;13935;55.672;37.764;2023-08-20T00:53:54;100454.91;;;22.59;100.00
26192;BME280;13935;55.672;37.764;2023-08-20T00:54:57;100445.75;;;22.55;100.00
26192;BME280;13935;55.672;37.764;2023-08-20T00:55:59;100449.50;;;22.52;100.00
26192;BME280;13935;55.672;37.764;2023-08-20T00:57:02;100443.75;;;22.55;100.00
26192;BME280;13935;55.672;37.764;2023-08-20T00:58:04;100445.56;;;22.49;100.00
26192;BME280;13935;55.672;37.764;2023-08-20T00:59:07;100446.00;;;22.48;100.00
26192;BME280;13935;55.672;37.764;2023-08-20T01:00:10;100446.47;;;22.46;100.00
26192;BME280;13935;55.672;37.764;2023-08-20T01:01:13;100443.19;;;22.48;100.00
26192;BME280;13935;55.672;37.764;2023-08-20T01:02:17;100438.47;;;22.45;100.00
26192;BME280;13935;55.672;37.764;2023-08-20T01:03:19;100443.44;;;22.41;100.00
26192;BME280;13935;55.672;37.764;2023-08-20T01:04:21;100445.00;;;22.42;100.00
26192;BME280;13935;55.672;37.764;2023-08-20T01:05:24;100441.84;;;22.40;100.00
26192;BME280;13935;55.672;37.764;2023-08-20T01:08:39;100439.03;;;22.40;100.00
26192;BME280;13935;55.672;37.764;2023-08-20T01:11:16;100439.22;;;22.21;100.00
26192;BME280;13935;55.672;37.764;2023-08-20T01:12:20;100445.66;;;22.21;100.00
26192;BME280;13935;55.672;37.764;2023-08-20T01:13:24;100441.59;;;22.22;100.00
26192;BME280;13935;55.672;37.764;2023-08-20T01:14:26;100442.50;;;22.19;100.00
26192;BME280;13935;55.672;37.764;2023-08-20T01:15:28;100443.31;;;22.20;100.00
26192;BME280;13935;55.672;37.764;2023-08-20T01:16:31;100444.09;;;22.20;100.00
26192;BME280;13935;55.672;37.764;2023-08-20T01:17:34;100452.19;;;22.18;100.00
26192;BME280;13935;55.672;37.764;2023-08-20T01:18:37;100448.72;;;22.14;100.00
26192;BME280;13935;55.672;37.764;2023-08-20T01:19:39;100450.84;;;22.10;100.00
26192;BME280;13935;55.672;37.764;2023-08-20T01:20:45;100447.78;;;22.17;100.00
26192;BME280;13935;55.672;37.764;2023-08-20T01:26:00;100449.59;;;22.11;100.00
26192;BME280;13935;55.672;37.764;2023-08-20T01:27:32;100445.22;;;22.10;100.00
26192;BME280;13935;55.672;37.764;2023-08-20T01:28:42;100450.28;;;22.15;100.00
26192;BME280;13935;55.672;37.764;2023-08-20T01:29:45;100449.94;;;22.13;100.00
26192;BME280;13935;55.672;37.764;2023-08-20T01:30:48;100454.69;;;22.16;100.00
26192;BME280;13935;55.672;37.764;2023-08-20T01:31:53;100455.34;;;22.20;100.00
26192;BME280;13935;55.672;37.764;2023-08-20T01:32:56;100453.56;;;22.14;100.00
26192;BME280;13935;55.672;37.764;2023-08-20T01:34:00;100455.56;;;22.13;100.00
26192;BME280;13935;55.672;37.764;2023-08-20T01:35:03;100460.88;;;22.11;100.00
26192;BME280;13935;55.672;37.764;2023-08-20T01:36:07;100458.97;;;22.08;100.00
26192;BME280;13935;55.672;37.764;2023-08-20T01:37:11;100454.00;;;22.12;100.00
26192;BME280;13935;55.672;37.764;2023-08-20T01:38:13;100452.41;;;22.11;100.00
26192;BME280;13935;55.672;37.764;2023-08-20T01:39:15;100449.16;;;22.13;100.00
26192;BME280;13935;55.672;37.764;2023-08-20T01:40:20;100442.59;;;22.16;100.00
26192;BME280;13935;55.672;37.764;2023-08-20T01:41:22;100441.81;;;22.15;100.00
26192;BME280;13935;55.672;37.764;2023-08-20T01:42:27;100439.69;;;22.19;100.00
26192;BME280;13935;55.672;37.764;2023-08-20T01:43:29;100443.41;;;22.16;100.00
26192;BME280;13935;55.672;37.764;2023-08-20T01:44:31;100442.59;;;22.16;100.00
26192;BME280;13935;55.672;37.764;2023-08-20T01:45:33;100447.47;;;22.15;100.00
26192;BME280;13935;55.672;37.764;2023-08-20T01:46:35;100446.91;;;22.20;100.00
26192;BME280;13935;55.672;37.764;2023-08-20T01:47:38;100443.31;;;22.20;100.00
26192;BME280;13935;55.672;37.764;2023-08-20T01:48:40;100441.94;;;22.24;100.00
26192;BME280;13935;55.672;37.764;2023-08-20T01:49:42;100439.91;;;22.25;100.00
26192;BME280;13935;55.672;37.764;2023-08-20T01:50:44;100445.09;;;22.26;100.00
26192;BME280;13935;55.672;37.764;2023-08-20T01:51:47;100448.25;;;22.28;100.00
26192;BME280;13935;55.672;37.764;2023-08-20T01:52:49;100443.84;;;22.27;100.00
26192;BME280;13935;55.672;37.764;2023-08-20T01:53:51;100447.06;;;22.29;100.00
26192;BME280;13935;55.672;37.764;2023-08-20T01:54:53;100443.66;;;22.34;100.00
26192;BME280;13935;55.672;37.764;2023-08-20T01:55:55;100445.34;;;22.31;100.00
26192;BME280;13935;55.672;37.764;2023-08-20T01:57:02;100452.44;;;22.36;100.00
26192;BME280;13935;55.672;37.764;2023-08-20T01:58:04;100445.44;;;22.40;100.00
26192;BME280;13935;55.672;37.764;2023-08-20T01:59:06;100443.44;;;22.41;100.00
26192;BME280;13935;55.672;37.764;2023-08-20T02:00:09;100450.50;;;22.45;100.00
26192;BME280;13935;55.672;37.764;2023-08-20T02:01:14;100450.63;;;22.42;100.00
26192;BME280;13935;55.672;37.764;2023-08-20T02:02:16;100456.28;;;22.42;100.00
26192;BME280;13935;55.672;37.764;2023-08-20T02:03:18;100451.44;;;22.42;100.00
26192;BME280;13935;55.672;37.764;2023-08-20T02:04:21;100447.50;;;22.40;100.00
26192;BME280;13935;55.672;37.764;2023-08-20T02:05:23;100457.84;;;22.43;100.00
26192;BME280;13935;55.672;37.764;2023-08-20T02:06:24;100453.81;;;22.44;100.00
26192;BME280;13935;55.672;37.764;2023-08-20T02:07:27;100446.00;;;22.48;100.00
26192;BME280;13935;55.672;37.764;2023-08-20T02:08:28;100455.38;;;22.45;100.00
26192;BME280;13935;55.672;37.764;2023-08-20T02:09:31;100458.56;;;22.47;100.00
26192;BME280;13935;55.672;37.764;2023-08-20T02:10:32;100456.41;;;22.51;100.00
26192;BME280;13935;55.672;37.764;2023-08-20T02:11:34;100451.88;;;22.53;100.00
26192;BME280;13935;55.672;37.764;2023-08-20T02:12:38;100455.81;;;22.56;100.00
26192;BME280;13935;55.672;37.764;2023-08-20T02:13:39;100457.41;;;22.57;100.00
26192;BME280;13935;55.672;37.764;2023-08-20T02:14:41;100454.22;;;22.55;100.00
26192;BME280;13935;55.672;37.764;2023-08-20T02:15:43;100455.03;;;22.55;100.00
26192;BME280;13935;55.672;37.764;2023-08-20T02:16:46;100456.63;;;22.56;100.00
26192;BME280;13935;55.672;37.764;2023-08-20T02:17:48;100459.44;;;22.56;100.00
26192;BME280;13935;55.672;37.764;2023-08-20T02:18:50;100459.44;;;22.56;100.00
26192;BME280;13935;55.672;37.764;2023-08-20T02:19:52;100457.41;;;22.57;100.00
26192;BME280;13935;55.672;37.764;2023-08-20T02:20:54;100454.34;;;22.51;100.00
26192;BME280;13935;55.672;37.764;2023-08-20T02:21:56;100453.56;;;22.51;100.00
26192;BME280;13935;55.672;37.764;2023-08-20T02:22:58;100455.28;;;22.48;100.00
26192;BME280;13935;55.672;37.764;2023-08-20T02:24:00;100449.06;;;22.41;100.00
26192;BME280;13935;55.672;37.764;2023-08-20T02:25:02;100454.94;;;22.34;100.00
26192;BME280;13935;55.672;37.764;2023-08-20T02:26:04;100455.72;;;22.34;100.00
26192;BME280;13935;55.672;37.764;2023-08-20T02:27:07;100460.59;;;22.34;100.00
26192;BME280;13935;55.672;37.764;2023-08-20T02:28:09;100469.25;;;22.39;100.00
26192;BME280;13935;55.672;37.764;2023-08-20T02:29:13;100468.38;;;22.42;100.00
26192;BME280;13935;55.672;37.764;2023-08-20T02:30:14;100464.63;;;22.45;100.00
26192;BME280;13935;55.672;37.764;2023-08-20T02:31:17;100477.19;;;22.44;100.00
26192;BME280;13935;55.672;37.764;2023-08-20T02:32:22;100477.38;;;22.50;100.00
26192;BME280;13935;55.672;37.764;2023-08-20T02:33:24;100480.53;;;22.52;100.00
26192;BME280;13935;55.672;37.764;2023-08-20T02:34:26;100478.97;;;22.51;100.00
26192;BME280;13935;55.672;37.764;2023-08-20T02:35:28;100480.19;;;22.50;100.00
26192;BME280;13935;55.672;37.764;2023-08-20T02:36:32;100477.03;;;22.48;100.00
26192;BME280;13935;55.672;37.764;2023-08-20T02:37:34;100477.50;;;22.59;100.00
26192;BME280;13935;55.672;37.764;2023-08-20T02:38:37;100464.34;;;22.77;100.00
26192;BME280;13935;55.672;37.764;2023-08-20T02:39:39;100462.75;;;22.89;100.00
26192;BME280;13935;55.672;37.764;2023-08-20T02:40:42;100458.22;;;22.91;100.00
26192;BME280;13935;55.672;37.764;2023-08-20T02:41:46;100451.88;;;22.99;100.00
26192;BME280;13935;55.672;37.764;2023-08-20T02:42:48;100454.63;;;22.91;100.00
26192;BME280;13935;55.672;37.764;2023-08-20T02:43:50;100454.06;;;22.96;100.00
26192;BME280;13935;55.672;37.764;2023-08-20T02:44:52;100445.13;;;23.09;100.00
26192;BME280;13935;55.672;37.764;2023-08-20T02:45:53;100437.53;;;23.19;100.00
26192;BME280;13935;55.672;37.764;2023-08-20T02:46:55;100439.63;;;23.27;100.00
26192;BME280;13935;55.672;37.764;2023-08-20T02:47:59;100433.63;;;23.25;100.00
26192;BME280;13935;55.672;37.764;2023-08-20T02:49:01;100430.94;;;23.43;100.00
26192;BME280;13935;55.672;37.764;2023-08-20T02:50:03;100444.09;;;23.59;100.00
26192;BME280;13935;55.672;37.764;2023-08-20T02:51:06;100434.88;;;23.67;100.00
26192;BME280;13935;55.672;37.764;2023-08-20T02:52:08;100436.22;;;23.75;100.00
26192;BME280;13935;55.672;37.764;2023-08-20T02:53:10;100433.06;;;23.73;100.00
26192;BME280;13935;55.672;37.764;2023-08-20T02:54:12;100436.84;;;23.58;100.00
26192;BME280;13935;55.672;37.764;2023-08-20T02:55:14;100437.53;;;23.40;100.00
26192;BME280;13935;55.672;37.764;2023-08-20T02:56:16;100438.69;;;23.30;100.00
26192;BME280;13935;55.672;37.764;2023-08-20T02:57:18;100429.47;;;23.17;100.00
26192;BME280;13935;55.672;37.764;2023-08-20T02:58:20;100435.50;;;23.07;100.00
26192;BME280;13935;55.672;37.764;2023-08-20T02:59:22;100441.25;;;23.16;100.00
26192;BME280;13935;55.672;37.764;2023-08-20T03:00:24;100438.28;;;23.19;100.00
26192;BME280;13935;55.672;37.764;2023-08-20T03:01:26;100442.94;;;23.13;100.00
26192;BME280;13935;55.672;37.764;2023-08-20T03:02:30;100446.28;;;23.21;100.00
26192;BME280;13935;55.672;37.764;2023-08-20T03:03:32;100437.66;;;23.15;100.00
26192;BME280;13935;55.672;37.764;2023-08-20T03:04:34;100438.28;;;23.19;100.00
26192;BME280;13935;55.672;37.764;2023-08-20T03:05:36;100439.88;;;23.20;100.00
26192;BME280;13935;55.672;37.764;2023-08-20T03:06:38;100435.72;;;23.12;100.00
26192;BME280;13935;55.672;37.764;2023-08-20T03:07:41;100437.44;;;23.10;100.00
26192;BME280;13935;55.672;37.764;2023-08-20T03:08:43;100435.50;;;23.07;100.00
26192;BME280;13935;55.672;37.764;2023-08-20T03:09:45;100429.34;;;23.21;100.00
26192;BME280;13935;55.672;37.764;2023-08-20T03:10:47;100438.38;;;23.28;100.00
26192;BME280;13935;55.672;37.764;2023-08-20T03:11:49;100428.44;;;23.24;100.00
26192;BME280;13935;55.672;37.764;2023-08-20T03:12:53;100435.22;;;23.26;100.00
26192;BME280;13935;55.672;37.764;2023-08-20T03:13:55;100443.44;;;23.33;100.00
26192;BME280;13935;55.672;37.764;2023-08-20T03:14:58;100442.19;;;23.34;100.00
26192;BME280;13935;55.672;37.764;2023-08-20T03:16:00;100445.31;;;23.36;100.00
26192;BME280;13935;55.672;37.764;2023-08-20T03:17:03;100442.63;;;23.54;100.00
26192;BME280;13935;55.672;37.764;2023-08-20T03:18:05;100442.72;;;23.63;100.00
26192;BME280;13935;55.672;37.764;2023-08-20T03:19:08;100446.28;;;23.76;100.00
26192;BME280;13935;55.672;37.764;2023-08-20T03:20:10;100447.53;;;23.75;100.00
26192;BME280;13935;55.672;37.764;2023-08-20T03:21:12;100446.63;;;23.78;100.00
26192;BME280;13935;55.672;37.764;2023-08-20T03:22:14;100448.84;;;23.83;100.00
26192;BME280;13935;55.672;37.764;2023-08-20T03:23:16;100450.09;;;23.82;100.00
26192;BME280;13935;55.672;37.764;2023-08-20T03:24:18;100452.28;;;23.78;100.00
26192;BME280;13935;55.672;37.764;2023-08-20T03:25:20;100448.59;;;23.99;100.00
26192;BME280;13935;55.672;37.764;2023-08-20T03:26:22;100449.56;;;24.05;100.00
26192;BME280;13935;55.672;37.764;2023-08-20T03:27:23;100449.66;;;24.23;100.00
26192;BME280;13935;55.672;37.764;2023-08-20T03:28:25;100454.03;;;24.15;100.00
26192;BME280;13935;55.672;37.764;2023-08-20T03:29:28;100449.94;;;24.16;100.00
26192;BME280;13935;55.672;37.764;2023-08-20T03:30:30;100453.84;;;24.09;100.00
26192;BME280;13935;55.672;37.764;2023-08-20T03:31:33;100457.78;;;24.12;100.00
26192;BME280;13935;55.672;37.764;2023-08-20T03:32:36;100457.28;;;24.04;100.00
26192;BME280;13935;55.672;37.764;2023-08-20T03:33:38;100465.34;;;24.15;100.00
26192;BME280;13935;55.672;37.764;2023-08-20T03:34:40;100468.06;;;23.97;100.00
26192;BME280;13935;55.672;37.764;2023-08-20T03:35:41;100472.44;;;23.89;100.00
26192;BME280;13935;55.672;37.764;2023-08-20T03:36:43;100474.72;;;24.03;100.00
26192;BME280;13935;55.672;37.764;2023-08-20T03:37:47;100476.94;;;24.08;100.00
26192;BME280;13935;55.672;37.764;2023-08-20T03:38:48;100476.53;;;23.97;100.00
26192;BME280;13935;55.672;37.764;2023-08-20T03:39:50;100460.88;;;24.05;100.00
26192;BME280;13935;55.672;37.764;2023-08-20T03:40:54;100468.13;;;24.06;100.00
26192;BME280;13935;55.672;37.764;2023-08-20T03:41:57;100472.19;;;24.05;100.00
26192;BME280;13935;55.672;37.764;2023-08-20T03:43:00;100470.94;;;24.06;100.00
26192;BME280;13935;55.672;37.764;2023-08-20T03:44:02;100478.53;;;24.09;100.00
26192;BME280;13935;55.672;37.764;2023-08-20T03:45:06;100479.31;;;24.09;100.00
26192;BME280;13935;55.672;37.764;2023-08-20T03:46:08;100486.03;;;24.03;100.00
26192;BME280;13935;55.672;37.764;2023-08-20T03:47:10;100479.09;;;24.04;100.00
26192;BME280;13935;55.672;37.764;2023-08-20T03:48:12;100484.31;;;24.05;100.00
26192;BME280;13935;55.672;37.764;2023-08-20T03:49:14;100485.75;;;24.10;100.00
26192;BME280;13935;55.672;37.764;2023-08-20T03:50:16;100495.78;;;24.02;100.00
26192;BME280;13935;55.672;37.764;2023-08-20T03:51:19;100487.22;;;23.93;100.00
26192;BME280;13935;55.672;37.764;2023-08-20T03:52:22;100483.03;;;23.76;100.00
26192;BME280;13935;55.672;37.764;2023-08-20T03:53:24;100481.91;;;23.74;100.00
26192;BME280;13935;55.672;37.764;2023-08-20T03:54:26;100478.50;;;23.66;100.00
26192;BME280;13935;55.672;37.764;2023-08-20T03:55:28;100473.94;;;23.60;100.00
26192;BME280;13935;55.672;37.764;2023-08-20T03:56:31;100477.59;;;23.69;100.00
26192;BME280;13935;55.672;37.764;2023-08-20T03:57:33;100471.94;;;23.69;100.00
26192;BME280;13935;55.672;37.764;2023-08-20T03:58:35;100473.31;;;23.65;100.00
26192;BME280;13935;55.672;37.764;2023-08-20T03:59:37;100469.34;;;23.53;100.00
26192;BME280;13935;55.672;37.764;2023-08-20T04:00:39;100475.97;;;23.59;100.00
26192;BME280;13935;55.672;37.764;2023-08-20T04:01:41;100473.66;;;23.45;100.00
26192;BME280;13935;55.672;37.764;2023-08-20T04:02:43;100473.00;;;23.41;100.00
26192;BME280;13935;55.672;37.764;2023-08-20T04:03:46;100475.41;;;23.30;100.00
26192;BME280;13935;55.672;37.764;2023-08-20T04:04:49;100464.59;;;23.29;100.00
26192;BME280;13935;55.672;37.764;2023-08-20T04:05:51;100463.25;;;23.21;100.00
26192;BME280;13935;55.672;37.764;2023-08-20T04:06:53;100465.59;;;23.22;100.00
26192;BME280;13935;55.672;37.764;2023-08-20T04:07:55;100459.19;;;23.22;100.00
26192;BME280;13935;55.672;37.764;2023-08-20T04:08:58;100461.91;;;23.13;100.00
26192;BME280;13935;55.672;37.764;2023-08-20T04:09:59;100458.91;;;23.07;100.00
26192;BME280;13935;55.672;37.764;2023-08-20T04:11:02;100453.59;;;22.97;100.00
26192;BME280;13935;55.672;37.764;2023-08-20T04:12:06;100447.47;;;22.98;100.00
26192;BME280;13935;55.672;37.764;2023-08-20T04:13:11;100439.41;;;22.76;100.00
26192;BME280;13935;55.672;37.764;2023-08-20T04:14:13;100436.47;;;22.79;100.00
26192;BME280;13935;55.672;37.764;2023-08-20T04:15:15;100438.59;;;22.88;100.00
26192;BME280;13935;55.672;37.764;2023-08-20T04:16:17;100448.13;;;22.81;100.00
26192;BME280;13935;55.672;37.764;2023-08-20T04:17:19;100459.84;;;22.80;100.00
26192;BME280;13935;55.672;37.764;2023-08-20T04:18:21;100456.81;;;22.74;100.00
26192;BME280;13935;55.672;37.764;2023-08-20T04:19:23;100452.88;;;22.72;100.00
26192;BME280;13935;55.672;37.764;2023-08-20T04:20:25;100450.72;;;22.76;100.00
26192;BME280;13935;55.672;37.764;2023-08-20T04:21:27;100442.28;;;22.63;100.00
26192;BME280;13935;55.672;37.764;2023-08-20T04:22:29;100456.59;;;22.69;100.00
26192;BME280;13935;55.672;37.764;2023-08-20T04:23:33;100449.47;;;22.64;100.00
26192;BME280;13935;55.672;37.764;2023-08-20T04:24:34;100453.69;;;22.60;100.00
26192;BME280;13935;55.672;37.764;2023-08-20T04:25:43;100451.63;;;22.60;100.00
26192;BME280;13935;55.672;37.764;2023-08-20T04:27:49;100434.72;;;22.48;100.00
26192;BME280;13935;55.672;37.764;2023-08-20T04:29:15;100430.66;;;22.49;100.00
26192;BME280;13935;55.672;37.764;2023-08-20T04:30:43;100421.19;;;22.43;100.00
26192;BME280;13935;55.672;37.764;2023-08-20T04:32:14;100404.25;;;22.43;100.00
26192;BME280;13935;55.672;37.764;2023-08-20T04:34:27;100402.59;;;22.33;100.00
26192;BME280;13935;55.672;37.764;2023-08-20T04:35:44;100404.94;;;22.34;100.00
26192;BME280;13935;55.672;37.764;2023-08-20T04:37:13;100417.25;;;22.28;100.00
26192;BME280;13935;55.672;37.764;2023-08-20T04:38:27;100422.75;;;22.19;100.00
26192;BME280;13935;55.672;37.764;2023-08-20T04:39:53;100428.03;;;22.17;100.00
26192;BME280;13935;55.672;37.764;2023-08-20T04:41:09;100414.66;;;22.21;100.00
26192;BME280;13935;55.672;37.764;2023-08-20T04:42:26;100409.31;;;22.23;100.00
26192;BME280;13935;55.672;37.764;2023-08-20T04:43:56;100407.66;;;22.26;100.00
26192;BME280;13935;55.672;37.764;2023-08-20T04:45:04;100429.41;;;22.25;100.00
26192;BME280;13935;55.672;37.764;2023-08-20T04:46:14;100437.66;;;22.20;100.00
26192;BME280;13935;55.672;37.764;2023-08-20T04:47:20;100435.41;;;22.27;100.00
26192;BME280;13935;55.672;37.764;2023-08-20T04:48:58;100426.84;;;22.30;100.00
26192;BME280;13935;55.672;37.764;2023-08-20T04:50:14;100426.16;;;22.39;100.00
26192;BME280;13935;55.672;37.764;2023-08-20T04:51:31;100423.34;;;22.39;100.00
26192;BME280;13935;55.672;37.764;2023-08-20T04:52:56;100436.44;;;22.33;100.00
26192;BME280;13935;55.672;37.764;2023-08-20T04:54:11;100443.84;;;22.27;100.00
26192;BME280;13935;55.672;37.764;2023-08-20T04:55:20;100441.50;;;22.38;100.00
26192;BME280;13935;55.672;37.764;2023-08-20T04:56:45;100451.56;;;22.39;100.00
26192;BME280;13935;55.672;37.764;2023-08-20T04:58:02;100444.56;;;22.31;100.00
26192;BME280;13935;55.672;37.764;2023-08-20T04:59:31;100443.84;;;22.27;100.00
26192;BME280;13935;55.672;37.764;2023-08-20T05:01:08;100447.56;;;22.24;100.00
26192;BME280;13935;55.672;37.764;2023-08-20T05:02:43;100453.56;;;22.26;100.00
26192;BME280;13935;55.672;37.764;2023-08-20T05:03:49;100451.06;;;22.28;100.00
26192;BME280;13935;55.672;37.764;2023-08-20T05:04:51;100449.72;;;22.20;100.00
26192;BME280;13935;55.672;37.764;2023-08-20T05:05:54;100444.84;;;22.21;100.00
26192;BME280;13935;55.672;37.764;2023-08-20T05:06:56;100443.72;;;22.18;100.00
26192;BME280;13935;55.672;37.764;2023-08-20T05:07:59;100445.22;;;22.23;100.00
26192;BME280;13935;55.672;37.764;2023-08-20T05:09:02;100455.34;;;22.20;100.00
26192;BME280;13935;55.672;37.764;2023-08-20T05:10:05;100452.88;;;22.22;100.00
26192;BME280;13935;55.672;37.764;2023-08-20T05:11:07;100452.78;;;22.26;100.00
26192;BME280;13935;55.672;37.764;2023-08-20T05:12:09;100453.19;;;22.24;100.00
26192;BME280;13935;55.672;37.764;2023-08-20T05:13:11;100447.13;;;22.26;100.00
26192;BME280;13935;55.672;37.764;2023-08-20T05:14:13;100460.78;;;22.27;100.00
26192;BME280;13935;55.672;37.764;2023-08-20T05:15:15;100451.06;;;22.03;100.00
26192;BME280;13935;55.672;37.764;2023-08-20T05:16:18;100447.25;;;22.22;100.00
26192;BME280;13935;55.672;37.764;2023-08-20T05:17:20;100449.88;;;22.29;100.00
26192;BME280;13935;55.672;37.764;2023-08-20T05:18:22;100440.34;;;22.23;100.00
26192;BME280;13935;55.672;37.764;2023-08-20T05:19:24;100452.69;;;22.29;100.00
26192;BME280;13935;55.672;37.764;2023-08-20T05:20:27;100447.78;;;22.17;100.00
26192;BME280;13935;55.672;37.764;2023-08-20T05:21:29;100443.84;;;22.27;100.00
26192;BME280;13935;55.672;37.764;2023-08-20T05:22:31;100435.88;;;22.38;100.00
26192;BME280;13935;55.672;37.764;2023-08-20T05:23:33;100438.69;;;22.38;100.00
26192;BME280;13935;55.672;37.764;2023-08-20T05:24:36;100433.16;;;22.47;100.00
26192;BME280;13935;55.672;37.764;2023-08-20T05:25:39;100431.56;;;22.46;100.00
26192;BME280;13935;55.672;37.764;2023-08-20T05:26:41;100425.34;;;22.63;100.00
26192;BME280;13935;55.672;37.764;2023-08-20T05:27:43;100429.94;;;22.70;100.00
26192;BME280;13935;55.672;37.764;2023-08-20T05:28:45;100417.72;;;22.85;100.00
26192;BME280;13935;55.672;37.764;2023-08-20T05:29:47;100415.59;;;22.77;100.00
26192;BME280;13935;55.672;37.764;2023-08-20T05:30:56;100405.97;;;22.87;100.00
26192;BME280;13935;55.672;37.764;2023-08-20T05:31:59;100406.38;;;22.98;100.00
26192;BME280;13935;55.672;37.764;2023-08-20T05:33:02;100403.00;;;23.02;100.00
26192;BME280;13935;55.672;37.764;2023-08-20T05:34:09;100407.88;;;23.23;100.00
26192;BME280;13935;55.672;37.764;2023-08-20T05:35:11;100414.00;;;23.22;100.00
26192;BME280;13935;55.672;37.764;2023-08-20T05:36:15;100402.56;;;23.25;100.00
26192;BME280;13935;55.672;37.764;2023-08-20T05:37:19;100398.88;;;23.37;100.00